createdAt,value
2019-01-14T00:00:16.169Z,5.37
2019-01-14T00:02:09.473Z,5.36
2019-01-14T00:04:03.176Z,5.35
2019-01-14T00:05:56.176Z,5.35
2019-01-14T00:07:52.057Z,5.32
2019-01-14T00:09:45.488Z,5.26
2019-01-14T00:11:38.540Z,5.16
2019-01-14T00:13:31.570Z,5.11
2019-01-14T00:15:24.929Z,5.09
2019-01-14T00:17:17.960Z,5.10
2019-01-14T00:19:11.600Z,5.11
2019-01-14T00:21:06.529Z,5.12
2019-01-14T00:22:59.528Z,5.11
2019-01-14T00:24:52.668Z,5.12
2019-01-14T00:26:47.326Z,5.13
2019-01-14T00:28:41.733Z,5.12
2019-01-14T00:30:34.577Z,5.13
2019-01-14T00:32:27.808Z,5.15
2019-01-14T00:34:21.326Z,5.14
2019-01-14T00:36:17.541Z,5.11
2019-01-14T00:38:12.038Z,5.07
2019-01-14T00:40:06.846Z,5.05
2019-01-14T00:41:59.566Z,5.04
2019-01-14T00:43:52.571Z,5.03
2019-01-14T00:45:45.242Z,5.03
2019-01-14T00:47:38.213Z,5.04
2019-01-14T00:49:32.031Z,5.04
2019-01-14T00:51:26.141Z,5.06
2019-01-14T00:53:20.526Z,5.06
2019-01-14T00:55:14.073Z,5.06
2019-01-14T00:57:07.370Z,5.07
2019-01-14T00:59:00.270Z,5.09
2019-01-14T01:00:53.236Z,5.12
2019-01-14T01:02:46.382Z,5.12
2019-01-14T01:04:39.540Z,5.15
2019-01-14T01:06:32.641Z,5.14
2019-01-14T01:08:25.567Z,5.13
2019-01-14T01:10:19.174Z,5.10
2019-01-14T01:12:12.215Z,5.08
2019-01-14T01:14:05.545Z,5.07
2019-01-14T01:15:59.211Z,5.03
2019-01-14T01:17:52.291Z,5.00
2019-01-14T01:19:46.058Z,5.00
2019-01-14T01:21:38.928Z,4.98
2019-01-14T01:23:32.052Z,4.96
2019-01-14T01:25:25.111Z,4.94
2019-01-14T01:27:18.140Z,4.94
2019-01-14T01:29:13.640Z,4.93
2019-01-14T01:31:06.990Z,4.93
2019-01-14T01:33:01.181Z,4.94
2019-01-14T01:34:55.672Z,4.93
2019-01-14T01:36:48.824Z,4.93
2019-01-14T01:38:41.842Z,4.93
2019-01-14T01:40:35.318Z,4.93
2019-01-14T01:42:28.886Z,4.93
2019-01-14T01:44:21.926Z,4.92
2019-01-14T01:46:15.224Z,4.91
2019-01-14T01:48:08.419Z,4.91
2019-01-14T01:50:01.824Z,4.90
2019-01-14T01:51:54.768Z,4.91
2019-01-14T01:53:48.148Z,4.92
2019-01-14T01:55:41.669Z,4.91
2019-01-14T01:57:34.678Z,4.92
2019-01-14T01:59:27.438Z,4.92
2019-01-14T02:01:20.798Z,4.90
2019-01-14T02:03:13.959Z,4.91
2019-01-14T02:05:09.078Z,4.91
2019-01-14T02:07:03.077Z,4.93
2019-01-14T02:08:55.705Z,4.96
2019-01-14T02:10:48.622Z,4.97
2019-01-14T02:12:41.698Z,4.97
2019-01-14T02:14:34.913Z,4.95
2019-01-14T02:16:28.119Z,4.96
2019-01-14T02:18:20.850Z,4.96
2019-01-14T02:20:16.267Z,4.97
2019-01-14T02:22:09.788Z,4.98
2019-01-14T02:24:02.776Z,4.99
2019-01-14T02:25:56.736Z,4.99
2019-01-14T02:27:49.685Z,4.99
2019-01-14T02:29:42.806Z,4.99
2019-01-14T02:31:35.739Z,5.00
2019-01-14T02:33:29.555Z,4.99
2019-01-14T02:35:22.700Z,4.99
2019-01-14T02:37:16.131Z,4.99
2019-01-14T02:39:10.064Z,4.97
2019-01-14T02:41:03.571Z,4.98
2019-01-14T02:42:57.330Z,4.97
2019-01-14T02:44:50.475Z,4.96
2019-01-14T02:46:44.326Z,4.97
2019-01-14T02:48:37.894Z,4.98
2019-01-14T02:50:32.884Z,4.99
2019-01-14T02:52:26.445Z,4.98
2019-01-14T02:54:20.206Z,4.97
2019-01-14T02:56:14.285Z,4.98
2019-01-14T02:58:07.483Z,4.99
2019-01-14T03:00:01.605Z,5.00
2019-01-14T03:01:55.568Z,4.98
2019-01-14T03:03:49.283Z,4.98
2019-01-14T03:05:43.222Z,4.98
2019-01-14T03:07:36.504Z,5.01
2019-01-14T03:09:29.780Z,5.06
2019-01-14T03:11:23.384Z,5.06
2019-01-14T03:13:16.929Z,5.06
2019-01-14T03:15:10.686Z,5.08
2019-01-14T03:17:04.367Z,5.06
2019-01-14T03:18:57.811Z,5.06
2019-01-14T03:20:51.534Z,5.05
2019-01-14T03:22:45.093Z,5.03
2019-01-14T03:24:39.217Z,5.04
2019-01-14T03:26:33.221Z,5.08
2019-01-14T03:28:26.333Z,5.11
2019-01-14T03:30:21.305Z,5.10
2019-01-14T03:32:14.686Z,5.12
2019-01-14T03:34:07.655Z,5.10
2019-01-14T03:36:01.016Z,5.09
2019-01-14T03:37:54.160Z,5.09
2019-01-14T03:39:47.292Z,5.07
2019-01-14T03:41:40.034Z,5.04
2019-01-14T03:43:34.426Z,5.02
2019-01-14T03:45:28.190Z,4.99
2019-01-14T03:47:21.127Z,4.95
2019-01-14T03:49:14.240Z,4.90
2019-01-14T03:51:07.173Z,4.90
2019-01-14T03:53:00.142Z,4.86
2019-01-14T03:54:53.158Z,4.87
2019-01-14T03:56:46.128Z,4.85
2019-01-14T03:58:39.124Z,4.84
2019-01-14T04:00:32.277Z,4.88
2019-01-14T04:02:25.426Z,4.90
2019-01-14T04:04:18.805Z,4.91
2019-01-14T04:06:11.821Z,4.92
2019-01-14T04:08:04.855Z,4.92
2019-01-14T04:09:57.795Z,4.92
2019-01-14T04:11:51.069Z,4.91
2019-01-14T04:13:45.039Z,4.87
2019-01-14T04:15:37.958Z,4.85
2019-01-14T04:17:31.033Z,4.82
2019-01-14T04:19:24.704Z,4.83
2019-01-14T04:21:17.725Z,4.83
2019-01-14T04:23:10.641Z,4.84
2019-01-14T04:25:03.726Z,4.82
2019-01-14T04:26:56.655Z,4.81
2019-01-14T04:28:49.605Z,4.84
2019-01-14T04:30:42.312Z,4.87
2019-01-14T04:32:35.295Z,4.89
2019-01-14T04:34:29.120Z,4.88
2019-01-14T04:36:23.399Z,4.89
2019-01-14T04:38:17.078Z,4.87
2019-01-14T04:40:11.081Z,4.87
2019-01-14T04:42:04.636Z,4.81
2019-01-14T04:43:57.970Z,4.78
2019-01-14T04:45:51.339Z,4.76
2019-01-14T04:47:50.556Z,4.72
2019-01-14T04:49:45.332Z,4.70
2019-01-14T04:51:40.184Z,4.67
2019-01-14T04:53:34.442Z,4.65
2019-01-14T04:55:27.742Z,4.65
2019-01-14T04:57:21.498Z,4.64
2019-01-14T04:59:14.441Z,4.61
2019-01-14T05:01:09.083Z,4.61
2019-01-14T05:03:04.509Z,4.59
2019-01-14T05:04:57.647Z,4.56
2019-01-14T05:06:50.947Z,4.57
2019-01-14T05:08:44.009Z,4.52
2019-01-14T05:10:36.874Z,4.47
2019-01-14T05:12:30.334Z,4.41
2019-01-14T05:14:23.337Z,4.37
2019-01-14T05:16:16.339Z,4.31
2019-01-14T05:18:09.367Z,4.25
2019-01-14T05:20:02.700Z,4.17
2019-01-14T05:21:55.700Z,4.09
2019-01-14T05:23:48.541Z,3.98
2019-01-14T05:25:41.490Z,3.89
2019-01-14T05:27:34.166Z,3.81
2019-01-14T05:29:32.632Z,3.75
2019-01-14T05:31:28.340Z,3.71
2019-01-14T05:33:21.282Z,3.61
2019-01-14T05:35:14.165Z,3.49
2019-01-14T05:37:07.390Z,3.40
2019-01-14T05:39:00.165Z,3.33
2019-01-14T05:40:53.159Z,3.28
2019-01-14T05:42:45.945Z,3.23
2019-01-14T05:44:38.919Z,3.18
2019-01-14T05:46:31.938Z,3.11
2019-01-14T05:48:24.910Z,3.03
2019-01-14T05:50:17.924Z,2.99
2019-01-14T05:52:10.808Z,2.96
2019-01-14T05:54:03.880Z,2.92
2019-01-14T05:55:56.760Z,2.93
2019-01-14T05:57:50.274Z,2.87
2019-01-14T05:59:43.467Z,2.81
2019-01-14T06:01:36.385Z,2.90
2019-01-14T06:03:29.517Z,2.87
2019-01-14T06:05:23.532Z,2.75
2019-01-14T06:07:17.402Z,2.73
2019-01-14T06:09:11.152Z,2.66
2019-01-14T06:11:03.939Z,2.67
2019-01-14T06:12:57.377Z,2.62
2019-01-14T06:14:50.237Z,2.56
2019-01-14T06:16:43.583Z,2.49
2019-01-14T06:18:36.427Z,2.43
2019-01-14T06:20:30.326Z,2.36
2019-01-14T06:22:23.046Z,2.27
2019-01-14T06:24:16.306Z,2.18
2019-01-14T06:26:10.267Z,2.10
2019-01-14T06:28:03.376Z,2.05
2019-01-14T06:29:56.243Z,1.98
2019-01-14T06:31:49.117Z,2.00
2019-01-14T06:33:42.294Z,1.94
2019-01-14T06:35:35.276Z,1.88
2019-01-14T06:37:28.606Z,1.87
2019-01-14T06:39:23.686Z,1.90
2019-01-14T06:41:16.837Z,1.93
2019-01-14T06:43:09.683Z,2.03
2019-01-14T06:45:02.876Z,2.07
2019-01-14T06:46:55.703Z,2.11
2019-01-14T06:48:48.476Z,2.09
2019-01-14T06:50:41.552Z,2.06
2019-01-14T06:52:34.250Z,2.05
2019-01-14T06:54:27.236Z,2.05
2019-01-14T06:56:20.239Z,2.04
2019-01-14T06:58:13.335Z,2.00
2019-01-14T07:00:08.158Z,1.96
2019-01-14T07:02:00.948Z,1.90
2019-01-14T07:03:55.263Z,1.88
2019-01-14T07:05:48.560Z,1.87
2019-01-14T07:07:41.911Z,1.87
2019-01-14T07:09:35.017Z,1.84
2019-01-14T07:11:28.134Z,1.79
2019-01-14T07:13:21.470Z,1.75
2019-01-14T07:15:14.396Z,1.69
2019-01-14T07:17:07.145Z,1.64
2019-01-14T07:19:00.227Z,1.58
2019-01-14T07:20:53.486Z,1.54
2019-01-14T07:22:46.819Z,1.52
2019-01-14T07:24:40.886Z,1.49
2019-01-14T07:26:33.570Z,1.49
2019-01-14T07:28:26.328Z,1.55
2019-01-14T07:30:21.409Z,1.60
2019-01-14T07:32:14.470Z,1.65
2019-01-14T07:34:08.907Z,1.73
2019-01-14T07:36:02.038Z,1.77
2019-01-14T07:37:56.479Z,1.82
2019-01-14T07:39:49.340Z,1.87
2019-01-14T07:41:42.385Z,1.88
2019-01-14T07:43:35.249Z,1.88
2019-01-14T07:45:28.308Z,1.89
2019-01-14T07:47:21.639Z,1.87
2019-01-14T07:49:14.762Z,1.83
2019-01-14T07:51:09.239Z,1.82
2019-01-14T07:53:02.367Z,1.82
2019-01-14T07:54:55.346Z,1.80
2019-01-14T07:56:48.689Z,1.80
2019-01-14T07:58:42.362Z,1.83
2019-01-14T08:00:35.329Z,1.84
2019-01-14T08:02:28.580Z,1.86
2019-01-14T08:04:21.521Z,1.85
2019-01-14T08:06:14.128Z,1.86
2019-01-14T08:08:13.812Z,1.91
2019-01-14T08:10:01.914Z,1.99
2019-01-14T08:11:55.871Z,2.10
2019-01-14T08:13:48.669Z,2.16
2019-01-14T08:15:42.090Z,2.19
2019-01-14T08:17:35.244Z,2.20
2019-01-14T08:19:29.913Z,2.15
2019-01-14T08:21:24.394Z,2.19
2019-01-14T08:23:17.447Z,2.19
2019-01-14T08:25:11.860Z,2.16
2019-01-14T08:27:04.676Z,2.14
2019-01-14T08:28:57.344Z,2.09
2019-01-14T08:30:50.332Z,2.05
2019-01-14T08:32:43.258Z,2.00
2019-01-14T08:34:36.252Z,1.92
2019-01-14T08:36:28.979Z,1.83
2019-01-14T08:38:22.207Z,1.77
2019-01-14T08:40:16.096Z,1.73
2019-01-14T08:42:27.541Z,1.70
2019-01-14T08:44:23.058Z,1.64
2019-01-14T08:46:15.633Z,1.63
2019-01-14T08:48:08.172Z,1.66
2019-01-14T08:50:01.030Z,1.72
2019-01-14T08:51:53.424Z,1.78
2019-01-14T08:53:46.993Z,1.82
2019-01-14T08:55:39.585Z,1.86
2019-01-14T08:57:32.107Z,1.91
2019-01-14T08:59:24.562Z,1.89
2019-01-14T09:01:17.076Z,1.88
2019-01-14T09:03:09.701Z,1.84
2019-01-14T09:05:02.147Z,1.83
2019-01-14T09:06:54.631Z,1.80
2019-01-14T09:08:47.181Z,1.80
2019-01-14T09:10:39.751Z,1.80
2019-01-14T09:12:32.192Z,1.80
2019-01-14T09:14:24.852Z,1.80
2019-01-14T09:16:17.362Z,1.78
2019-01-14T09:18:10.598Z,1.82
2019-01-14T09:20:03.700Z,1.81
2019-01-14T09:21:56.303Z,1.82
2019-01-14T09:23:50.019Z,1.83
2019-01-14T09:25:42.583Z,1.91
2019-01-14T09:27:35.393Z,1.97
2019-01-14T09:29:29.085Z,2.04
2019-01-14T09:31:23.175Z,2.03
2019-01-14T09:33:16.024Z,2.03
2019-01-14T09:35:08.780Z,1.99
2019-01-14T09:37:01.512Z,1.98
2019-01-14T09:38:54.144Z,2.01
2019-01-14T09:40:46.752Z,1.98
2019-01-14T09:42:39.839Z,1.98
2019-01-14T09:44:32.482Z,1.97
2019-01-14T09:46:26.158Z,2.00
2019-01-14T09:48:18.736Z,1.99
2019-01-14T09:50:13.299Z,2.02
2019-01-14T09:52:05.768Z,2.08
2019-01-14T09:53:58.286Z,2.12
2019-01-14T09:55:50.795Z,2.20
2019-01-14T09:57:43.387Z,2.24
2019-01-14T09:59:35.929Z,2.27
2019-01-14T10:01:28.457Z,2.31
2019-01-14T10:03:21.050Z,2.32
2019-01-14T10:05:15.088Z,2.36
2019-01-14T10:07:07.693Z,2.40
2019-01-14T10:09:00.728Z,2.43
2019-01-14T10:10:54.973Z,2.44
2019-01-14T10:12:47.574Z,2.47
2019-01-14T10:14:40.096Z,2.48
2019-01-14T10:16:32.723Z,2.48
2019-01-14T10:18:26.412Z,2.50
2019-01-14T10:20:19.218Z,2.56
2019-01-14T10:22:12.077Z,2.51
2019-01-14T10:24:04.740Z,2.48
2019-01-14T10:25:57.444Z,2.48
2019-01-14T10:27:50.050Z,2.53
2019-01-14T10:29:42.578Z,2.57
2019-01-14T10:31:35.430Z,2.67
2019-01-14T10:33:28.046Z,2.73
2019-01-14T10:35:21.722Z,2.67
2019-01-14T10:37:14.311Z,2.79
2019-01-14T10:39:09.291Z,2.81
2019-01-14T10:41:02.032Z,2.82
2019-01-14T10:42:54.753Z,2.73
2019-01-14T10:44:47.357Z,2.63
2019-01-14T10:46:40.123Z,2.61
2019-01-14T10:48:32.868Z,2.53
2019-01-14T10:50:25.708Z,2.53
2019-01-14T10:52:18.408Z,2.56
2019-01-14T10:54:11.084Z,2.50
2019-01-14T10:56:03.734Z,2.48
2019-01-14T10:57:56.242Z,2.47
2019-01-14T10:59:48.953Z,2.52
2019-01-14T11:01:41.575Z,2.60
2019-01-14T11:03:34.191Z,2.67
2019-01-14T11:05:30.006Z,2.62
2019-01-14T11:07:22.592Z,2.57
2019-01-14T11:09:15.140Z,2.52
2019-01-14T11:11:07.675Z,2.41
2019-01-14T11:13:00.743Z,2.35
2019-01-14T11:14:53.152Z,2.32
2019-01-14T11:16:45.720Z,2.39
2019-01-14T11:18:40.473Z,2.50
2019-01-14T11:20:34.002Z,2.58
2019-01-14T11:22:26.663Z,2.66
2019-01-14T11:24:19.282Z,2.58
2019-01-14T11:26:14.532Z,2.51
2019-01-14T11:28:07.243Z,2.39
2019-01-14T11:29:59.841Z,2.34
2019-01-14T11:31:52.509Z,2.33
2019-01-14T11:33:45.208Z,2.33
2019-01-14T11:35:38.731Z,2.33
2019-01-14T11:37:31.444Z,2.26
2019-01-14T11:39:24.124Z,2.23
2019-01-14T11:41:17.477Z,2.17
2019-01-14T11:43:10.160Z,2.14
2019-01-14T11:45:02.763Z,2.09
2019-01-14T11:46:55.533Z,1.98
2019-01-14T11:48:48.227Z,1.85
2019-01-14T11:50:40.991Z,1.79
2019-01-14T11:52:33.725Z,1.76
2019-01-14T11:54:26.346Z,1.75
2019-01-14T11:56:19.024Z,1.76
2019-01-14T11:58:11.520Z,1.80
2019-01-14T12:00:04.250Z,1.86
2019-01-14T12:01:56.956Z,1.97
2019-01-14T12:03:49.662Z,2.06
2019-01-14T12:05:42.322Z,2.11
2019-01-14T12:07:34.913Z,2.20
2019-01-14T12:09:27.580Z,2.14
2019-01-14T12:11:20.264Z,2.12
2019-01-14T12:13:12.935Z,2.11
2019-01-14T12:15:07.952Z,2.06
2019-01-14T12:17:00.984Z,2.01
2019-01-14T12:18:53.680Z,1.97
2019-01-14T12:20:46.764Z,1.93
2019-01-14T12:22:39.463Z,2.02
2019-01-14T12:24:31.992Z,1.98
2019-01-14T12:26:24.728Z,1.93
2019-01-14T12:28:17.243Z,1.84
2019-01-14T12:30:24.832Z,1.81
2019-01-14T12:32:19.263Z,1.81
2019-01-14T12:34:11.808Z,1.79
2019-01-14T12:36:05.590Z,1.75
2019-01-14T12:37:58.226Z,1.71
2019-01-14T12:39:50.740Z,1.64
2019-01-14T12:41:43.596Z,1.57
2019-01-14T12:43:36.337Z,1.56
2019-01-14T12:45:29.038Z,1.54
2019-01-14T12:47:21.416Z,1.52
2019-01-14T12:49:14.708Z,1.48
2019-01-14T12:51:09.397Z,1.44
2019-01-14T12:53:02.000Z,1.42
2019-01-14T12:54:55.947Z,1.35
2019-01-14T12:56:48.678Z,1.29
2019-01-14T12:58:41.196Z,1.23
2019-01-14T13:00:33.977Z,1.19
2019-01-14T13:02:26.548Z,1.18
2019-01-14T13:04:20.107Z,1.18
2019-01-14T13:06:12.478Z,1.19
2019-01-14T13:08:05.089Z,1.17
2019-01-14T13:09:57.624Z,1.16
2019-01-14T13:11:50.268Z,1.13
2019-01-14T13:13:44.069Z,1.13
2019-01-14T13:15:36.718Z,1.13
2019-01-14T13:17:29.108Z,1.12
2019-01-14T13:19:21.472Z,1.12
2019-01-14T13:21:14.021Z,1.14
2019-01-14T13:23:06.512Z,1.12
2019-01-14T13:24:59.154Z,1.11
2019-01-14T13:26:51.738Z,1.10
2019-01-14T13:28:44.437Z,1.04
2019-01-14T13:30:43.671Z,1.01
2019-01-14T13:32:38.123Z,0.99
2019-01-14T13:34:30.779Z,0.96
2019-01-14T13:36:23.364Z,1.01
2019-01-14T13:38:15.810Z,1.11
2019-01-14T13:40:10.102Z,1.21
2019-01-14T13:42:02.746Z,1.32
2019-01-14T13:43:55.515Z,1.50
2019-01-14T13:45:52.424Z,1.59
2019-01-14T13:47:42.697Z,1.66
2019-01-14T13:49:35.306Z,1.70
2019-01-14T13:51:27.914Z,1.63
2019-01-14T13:53:20.370Z,1.53
2019-01-14T13:55:13.067Z,1.48
2019-01-14T13:57:05.842Z,1.41
2019-01-14T13:58:58.359Z,1.23
2019-01-14T14:00:51.083Z,1.09
2019-01-14T14:02:43.768Z,0.95
2019-01-14T14:04:36.445Z,0.85
2019-01-14T14:06:29.193Z,0.79
2019-01-14T14:08:21.959Z,0.80
2019-01-14T14:10:19.034Z,0.79
2019-01-14T14:12:11.543Z,0.77
2019-01-14T14:14:04.152Z,0.74
2019-01-14T14:15:56.700Z,0.73
2019-01-14T14:17:49.182Z,0.69
2019-01-14T14:19:41.779Z,0.60
2019-01-14T14:21:35.063Z,0.45
2019-01-14T14:23:28.057Z,0.35
2019-01-14T14:25:20.759Z,0.28
2019-01-14T14:27:13.386Z,0.24
2019-01-14T14:29:05.995Z,0.20
2019-01-14T14:30:58.750Z,0.20
2019-01-14T14:32:51.458Z,0.16
2019-01-14T14:34:44.319Z,0.14
2019-01-14T14:36:36.971Z,0.03
2019-01-14T14:38:29.403Z,-0.09
2019-01-14T14:40:22.021Z,-0.18
2019-01-14T14:42:14.563Z,-0.20
2019-01-14T14:44:07.171Z,-0.20
2019-01-14T14:45:59.931Z,-0.21
2019-01-14T14:47:52.482Z,-0.26
2019-01-14T14:49:45.058Z,-0.32
2019-01-14T14:51:37.848Z,-0.36
2019-01-14T14:53:30.678Z,-0.43
2019-01-14T14:55:23.170Z,-0.52
2019-01-14T14:57:15.884Z,-0.60
2019-01-14T14:59:08.572Z,-0.64
2019-01-14T15:01:02.329Z,-0.64
2019-01-14T15:02:54.802Z,-0.67
2019-01-14T15:04:47.381Z,-0.71
2019-01-14T15:06:40.189Z,-0.66
2019-01-14T15:08:32.913Z,-0.72
2019-01-14T15:10:25.712Z,-0.74
2019-01-14T15:12:18.363Z,-0.70
2019-01-14T15:14:11.092Z,-0.68
2019-01-14T15:16:05.595Z,-0.74
2019-01-14T15:17:58.401Z,-0.73
2019-01-14T15:19:52.333Z,-0.73
2019-01-14T15:21:44.993Z,-0.75
2019-01-14T15:23:37.659Z,-0.78
2019-01-14T15:25:30.326Z,-0.91
2019-01-14T15:27:22.836Z,-0.99
2019-01-14T15:29:15.356Z,-1.07
2019-01-14T15:31:08.064Z,-1.15
2019-01-14T15:33:00.719Z,-1.20
2019-01-14T15:34:53.281Z,-1.24
2019-01-14T15:36:45.846Z,-1.22
2019-01-14T15:38:38.477Z,-1.16
2019-01-14T15:40:31.032Z,-1.13
2019-01-14T15:42:24.131Z,-1.13
2019-01-14T15:44:16.811Z,-1.10
2019-01-14T15:46:09.574Z,-1.13
2019-01-14T15:48:02.361Z,-1.16
2019-01-14T15:49:54.944Z,-1.17
2019-01-14T15:51:47.763Z,-1.20
2019-01-14T15:53:40.392Z,-1.26
2019-01-14T15:55:33.555Z,-1.26
2019-01-14T15:57:26.303Z,-1.30
2019-01-14T15:59:19.072Z,-1.27
2019-01-14T16:01:12.955Z,-1.29
2019-01-14T16:03:05.902Z,-1.32
2019-01-14T16:04:58.634Z,-1.29
2019-01-14T16:06:51.433Z,-1.28
2019-01-14T16:08:44.432Z,-1.21
2019-01-14T16:10:37.572Z,-1.12
2019-01-14T16:12:31.075Z,-1.11
2019-01-14T16:14:26.174Z,-1.11
2019-01-14T16:16:19.470Z,-1.07
2019-01-14T16:18:13.063Z,-0.99
2019-01-14T16:20:07.401Z,-1.00
2019-01-14T16:22:00.893Z,-1.00
2019-01-14T16:23:54.243Z,-1.04
2019-01-14T16:25:48.653Z,-1.09
2019-01-14T16:27:42.164Z,-1.07
2019-01-14T16:29:35.470Z,-1.09
2019-01-14T16:31:28.794Z,-1.09
2019-01-14T16:33:22.085Z,-1.11
2019-01-14T16:35:15.383Z,-1.10
2019-01-14T16:37:08.702Z,-1.13
2019-01-14T16:39:02.081Z,-1.15
2019-01-14T16:40:55.424Z,-1.16
2019-01-14T16:42:48.784Z,-1.10
2019-01-14T16:44:42.180Z,-1.09
2019-01-14T16:46:35.463Z,-1.10
2019-01-14T16:48:28.823Z,-1.08
2019-01-14T16:50:22.483Z,-1.12
2019-01-14T16:52:15.923Z,-1.15
2019-01-14T16:54:09.101Z,-1.19
2019-01-14T16:56:17.336Z,-1.17
2019-01-14T16:58:11.907Z,-1.24
2019-01-14T17:00:05.678Z,-1.24
2019-01-14T17:01:59.210Z,-1.20
2019-01-14T17:03:52.613Z,-1.24
2019-01-14T17:05:45.923Z,-1.24
2019-01-14T17:07:39.918Z,-1.19
2019-01-14T17:09:33.231Z,-1.19
2019-01-14T17:11:26.421Z,-1.19
2019-01-14T17:13:19.955Z,-1.20
2019-01-14T17:15:13.450Z,-1.17
2019-01-14T17:17:07.721Z,-1.17
2019-01-14T17:19:01.186Z,-1.12
2019-01-14T17:20:54.444Z,-1.11
2019-01-14T17:22:47.828Z,-1.07
2019-01-14T17:24:41.200Z,-1.07
2019-01-14T17:26:34.567Z,-1.08
2019-01-14T17:28:28.358Z,-1.12
2019-01-14T17:30:22.748Z,-1.05
2019-01-14T17:32:17.081Z,-1.06
2019-01-14T17:34:12.438Z,-1.11
2019-01-14T17:36:06.267Z,-1.00
2019-01-14T17:37:59.650Z,-0.99
2019-01-14T17:39:52.939Z,-1.01
2019-01-14T17:41:47.506Z,-1.07
2019-01-14T17:43:41.137Z,-1.00
2019-01-14T17:45:34.740Z,-1.01
2019-01-14T17:47:28.123Z,-1.02
2019-01-14T17:49:21.490Z,-1.02
2019-01-14T17:51:15.348Z,-0.99
2019-01-14T17:53:08.698Z,-0.95
2019-01-14T17:55:02.118Z,-0.94
2019-01-14T17:56:55.791Z,-0.98
2019-01-14T17:58:49.967Z,-0.95
2019-01-14T18:00:43.378Z,-1.00
2019-01-14T18:02:36.710Z,-1.04
2019-01-14T18:04:30.174Z,-1.06
2019-01-14T18:06:23.689Z,-1.05
2019-01-14T18:08:17.030Z,-1.07
2019-01-14T18:10:12.718Z,-1.01
2019-01-14T18:12:06.540Z,-0.96
2019-01-14T18:13:59.798Z,-0.93
2019-01-14T18:15:53.301Z,-0.91
2019-01-14T18:17:47.150Z,-0.88
2019-01-14T18:19:40.410Z,-0.83
2019-01-14T18:21:34.199Z,-0.80
2019-01-14T18:23:27.501Z,-0.74
2019-01-14T18:25:21.270Z,-0.71
2019-01-14T18:27:14.664Z,-0.71
2019-01-14T18:29:07.911Z,-0.72
2019-01-14T18:31:01.250Z,-0.73
2019-01-14T18:33:02.401Z,-0.73
2019-01-14T18:34:55.805Z,-0.76
2019-01-14T18:36:57.165Z,-0.77
2019-01-14T18:38:50.494Z,-0.73
2019-01-14T18:40:47.223Z,-0.68
2019-01-14T18:42:39.419Z,-0.65
2019-01-14T18:44:32.894Z,-0.56
2019-01-14T18:46:26.471Z,-0.53
2019-01-14T18:48:19.818Z,-0.48
2019-01-14T18:50:16.910Z,-0.46
2019-01-14T18:52:10.330Z,-0.44
2019-01-14T18:54:04.111Z,-0.45
2019-01-14T18:55:57.822Z,-0.44
2019-01-14T18:57:52.380Z,-0.40
2019-01-14T18:59:45.918Z,-0.39
2019-01-14T19:01:39.341Z,-0.36
2019-01-14T19:03:34.468Z,-0.33
2019-01-14T19:05:28.000Z,-0.29
2019-01-14T19:07:21.498Z,-0.23
2019-01-14T19:09:14.861Z,-0.22
2019-01-14T19:11:08.530Z,-0.21
2019-01-14T19:13:01.941Z,-0.20
2019-01-14T19:14:55.311Z,-0.22
2019-01-14T19:16:50.270Z,-0.22
2019-01-14T19:18:44.440Z,-0.23
2019-01-14T19:20:38.015Z,-0.21
2019-01-14T19:22:31.348Z,-0.21
2019-01-14T19:24:24.930Z,-0.20
2019-01-14T19:26:21.135Z,-0.19
2019-01-14T19:28:14.681Z,-0.19
2019-01-14T19:30:10.920Z,-0.20
2019-01-14T19:35:12.806Z,-0.23
2019-01-14T19:37:12.522Z,-0.23
2019-01-14T19:39:08.261Z,-0.30
2019-01-14T19:41:02.203Z,-0.27
2019-01-14T19:42:55.808Z,-0.22
2019-01-14T19:44:49.720Z,-0.18
2019-01-14T19:46:43.329Z,-0.11
2019-01-14T19:48:38.275Z,-0.06
2019-01-14T19:50:31.791Z,0.03
2019-01-14T19:52:25.921Z,0.05
2019-01-14T19:54:19.540Z,0.08
2019-01-14T19:56:13.038Z,0.14
2019-01-14T19:58:07.156Z,0.15
2019-01-14T20:00:00.632Z,0.12
2019-01-14T20:01:54.270Z,0.04
2019-01-14T20:03:47.820Z,-0.02
2019-01-14T20:05:41.380Z,-0.04
2019-01-14T20:07:34.917Z,-0.01
2019-01-14T20:09:28.891Z,-0.01
2019-01-14T20:11:22.348Z,-0.02
2019-01-14T20:13:23.056Z,-0.02
2019-01-14T20:15:19.788Z,-0.02
2019-01-14T20:17:13.331Z,-0.05
2019-01-14T20:19:10.395Z,-0.12
2019-01-14T20:21:04.272Z,-0.11
2019-01-14T20:22:58.561Z,-0.05
2019-01-14T20:24:53.250Z,-0.03
2019-01-14T20:26:47.768Z,-0.06
2019-01-14T20:28:44.142Z,-0.09
2019-01-14T20:30:37.631Z,-0.10
2019-01-14T20:32:31.233Z,-0.10
2019-01-14T20:34:24.798Z,-0.13
2019-01-14T20:36:18.230Z,-0.15
2019-01-14T20:38:13.120Z,-0.19
2019-01-14T20:40:07.540Z,-0.15
2019-01-14T20:42:00.951Z,-0.14
2019-01-14T20:43:54.808Z,-0.13
2019-01-14T20:45:48.479Z,-0.15
2019-01-14T20:47:42.041Z,-0.08
2019-01-14T20:49:35.948Z,-0.07
2019-01-14T20:51:29.859Z,-0.09
2019-01-14T20:53:23.779Z,-0.06
2019-01-14T20:55:18.772Z,0.02
2019-01-14T20:57:12.300Z,0.03
2019-01-14T20:59:06.671Z,0.06
2019-01-14T21:01:00.371Z,0.03
2019-01-14T21:02:54.108Z,0.06
2019-01-14T21:04:47.729Z,0.11
2019-01-14T21:06:41.143Z,0.16
2019-01-14T21:08:34.451Z,0.15
2019-01-14T21:10:27.996Z,0.15
2019-01-14T21:12:22.260Z,0.13
2019-01-14T21:14:15.569Z,0.13
2019-01-14T21:16:10.339Z,0.16
2019-01-14T21:18:03.711Z,0.15
2019-01-14T21:20:00.031Z,0.17
2019-01-14T21:21:53.420Z,0.14
2019-01-14T21:23:46.851Z,0.18
2019-01-14T21:25:40.208Z,0.14
2019-01-14T21:27:33.498Z,0.12
2019-01-14T21:29:26.750Z,0.12
2019-01-14T21:31:20.253Z,0.17
2019-01-14T21:33:13.621Z,0.15
2019-01-14T21:35:07.561Z,0.11
2019-01-14T21:37:00.837Z,0.07
2019-01-14T21:38:54.111Z,0.07
2019-01-14T21:40:47.541Z,0.08
2019-01-14T21:42:40.771Z,0.06
2019-01-14T21:44:34.031Z,0.04
2019-01-14T21:46:27.740Z,0.08
2019-01-14T21:48:23.386Z,0.03
2019-01-14T21:50:20.340Z,0.08
2019-01-14T21:52:13.421Z,0.06
2019-01-14T21:54:06.680Z,0.10
2019-01-14T21:55:59.521Z,0.03
2019-01-14T21:57:52.823Z,-0.01
2019-01-14T21:59:46.921Z,-0.04
2019-01-14T22:01:39.983Z,0.01
2019-01-14T22:03:32.908Z,0.05
2019-01-14T22:05:26.678Z,0.04
2019-01-14T22:07:19.821Z,0.03
2019-01-14T22:09:13.519Z,0.09
2019-01-14T22:11:12.491Z,0.07
2019-01-14T22:13:06.348Z,0.09
2019-01-14T22:14:59.179Z,0.11
2019-01-14T22:16:51.911Z,0.07
2019-01-14T22:18:45.141Z,0.08
2019-01-14T22:20:39.170Z,0.09
2019-01-14T22:22:32.051Z,0.12
2019-01-14T22:24:24.762Z,0.11
2019-01-14T22:26:17.491Z,0.10
2019-01-14T22:28:10.313Z,0.10
2019-01-14T22:30:03.075Z,0.08
2019-01-14T22:31:55.611Z,0.05
2019-01-14T22:33:48.211Z,0.06
2019-01-14T22:35:40.800Z,0.06
2019-01-14T22:37:33.549Z,0.09
2019-01-14T22:39:26.347Z,0.08
2019-01-14T22:41:19.091Z,0.08
2019-01-14T22:43:11.820Z,0.08
2019-01-14T22:45:04.561Z,0.07
2019-01-14T22:46:57.444Z,0.03
2019-01-14T22:48:50.149Z,0.02
2019-01-14T22:50:44.211Z,-0.01
2019-01-14T22:52:36.931Z,-0.05
2019-01-14T22:54:29.681Z,-0.03
2019-01-14T22:56:22.500Z,-0.03
2019-01-14T22:58:15.043Z,0.01
2019-01-14T23:00:55.258Z,0.06
2019-01-14T23:02:48.021Z,0.09
2019-01-14T23:04:41.083Z,0.07
2019-01-14T23:06:33.762Z,0.07
2019-01-14T23:08:26.521Z,0.03
2019-01-14T23:10:19.222Z,0.03
2019-01-14T23:12:11.921Z,0.06
2019-01-14T23:14:04.628Z,-0.01
2019-01-14T23:15:58.382Z,-0.04
2019-01-14T23:17:50.891Z,-0.09
2019-01-14T23:19:43.740Z,-0.13
2019-01-14T23:21:36.361Z,-0.14
2019-01-14T23:23:29.070Z,-0.18
2019-01-14T23:25:21.933Z,-0.17
2019-01-14T23:27:14.809Z,-0.20
2019-01-14T23:29:07.352Z,-0.24
2019-01-14T23:31:00.059Z,-0.27
2019-01-14T23:32:52.561Z,-0.31
2019-01-14T23:34:45.110Z,-0.30
2019-01-14T23:36:37.642Z,-0.31
2019-01-14T23:38:30.398Z,-0.27
2019-01-14T23:40:22.998Z,-0.26
2019-01-14T23:42:15.590Z,-0.27
2019-01-14T23:44:08.201Z,-0.25
2019-01-14T23:46:00.971Z,-0.21
2019-01-14T23:47:53.411Z,-0.21
2019-01-14T23:49:46.031Z,-0.18
2019-01-14T23:51:38.641Z,-0.20
2019-01-14T23:53:31.270Z,-0.16
2019-01-14T23:55:23.790Z,-0.10
2019-01-14T23:57:16.290Z,-0.07
2019-01-14T23:59:08.830Z,-0.04
